Terminal Aerodrome Forecast
Issued by NWS Billings, MT

Home | Current Version | Previous Version | Graphics & Text | Print | Product List | Glossary On
Versions: 1 2 3 4 5 6 7 8 9 10 11 12 13 14 15 16 17 18 19 20 21 22 23 24 25 26 27 28 29 30 31 32 33 34 35 36
000
FTUS45 KBYZ 141756 AAA
TAFMLS
TAF AMD
KMLS 141756Z 1418/1518 33020KT 2SM -SN BR SCT012 BKN019 OVC025
     FM142300 34015G25KT 4SM -SN BR OVC018
     FM150100 34015G25KT P6SM SKC
     FM150600 34010KT P6SM SKC
     FM151200 VRB04KT P6SM SKC=

USA.gov is the U.S. government's official web portal to all federal, state and local government web resources and services.